Time,TemperatureF,DewpointF,PressureIn,WindDirection,WindDirectionDegrees,WindSpeedMPH,WindSpeedGustMPH,Humidity,HourlyPrecipIn,Conditions,Clouds,dailyrainin,SoftwareType,DateUTC
2013-04-02 00:14:00,35.4,34.0,30.08,SSE,156,0.0,0.0,94,0.00,,,0.00,weatherlink.com 1.10,2013-04-02 07:14:00,
2013-04-02 00:29:00,35.2,34.0,30.08,SSE,157,0.0,0.0,94,0.00,,,0.00,weatherlink.com 1.10,2013-04-02 07:29:00,
2013-04-02 00:44:00,35.1,34.0,30.09,SSE,156,0.0,0.0,95,0.00,,,0.00,weatherlink.com 1.10,2013-04-02 07:44:00,
2013-04-02 00:59:00,34.9,34.0,30.09,SSE,157,0.0,0.0,95,0.00,,,0.00,weatherlink.com 1.10,2013-04-02 07:59:00,
2013-04-02 01:15:00,35.1,34.0,30.10,SSE,156,0.0,0.0,96,0.00,,,0.00,weatherlink.com 1.10,2013-04-02 08:15:00,
2013-04-02 01:29:00,35.2,34.0,30.10,SSE,156,0.0,0.0,96,0.00,,,0.00,weatherlink.com 1.10,2013-04-02 08:29:00,
2013-04-02 01:44:00,35.1,34.0,30.10,SSE,156,0.0,0.0,96,0.00,,,0.00,weatherlink.com 1.10,2013-04-02 08:44:00,
2013-04-02 02:00:00,35.5,35.0,30.10,South,176,0.0,2.0,96,0.00,,,0.00,weatherlink.com 1.10,2013-04-02 09:00:00,
2013-04-02 02:15:00,35.7,35.0,30.10,SSE,155,0.0,0.0,96,0.00,,,0.00,weatherlink.com 1.10,2013-04-02 09:15:00,
2013-04-02 02:30:00,36.3,35.0,30.10,ESE,111,0.0,3.0,96,0.00,,,0.00,weatherlink.com 1.10,2013-04-02 09:30:00,
2013-04-02 02:45:00,35.9,35.0,30.10,South,173,1.0,2.0,95,0.00,,,0.00,weatherlink.com 1.10,2013-04-02 09:45:00,
2013-04-02 03:00:00,35.1,34.0,30.10,SE,146,0.0,1.0,95,0.00,,,0.00,weatherlink.com 1.10,2013-04-02 10:00:00,
2013-04-02 03:15:00,34.3,33.0,30.10,SSE,149,0.0,0.0,95,0.00,,,0.00,weatherlink.com 1.10,2013-04-02 10:15:00,
2013-04-02 03:30:00,33.3,32.0,30.10,SSE,149,0.0,0.0,94,0.00,,,0.00,weatherlink.com 1.10,2013-04-02 10:30:00,
2013-04-02 03:45:00,32.1,31.0,30.10,SSE,149,0.0,0.0,94,0.00,,,0.00,weatherlink.com 1.10,2013-04-02 10:45:00,
2013-04-02 04:00:00,31.8,31.0,30.10,SSE,149,0.0,0.0,95,0.00,,,0.00,weatherlink.com 1.10,2013-04-02 11:00:00,
2013-04-02 04:15:00,31.6,30.0,30.10,SSE,149,0.0,0.0,95,0.00,,,0.00,weatherlink.com 1.10,2013-04-02 11:15:00,
2013-04-02 04:30:00,31.4,30.0,30.10,South,170,0.0,1.0,96,0.00,,,0.00,weatherlink.com 1.10,2013-04-02 11:30:00,
2013-04-02 04:45:00,31.0,30.0,30.10,South,173,1.0,2.0,95,0.00,,,0.00,weatherlink.com 1.10,2013-04-02 11:45:00,
2013-04-02 05:00:00,30.0,29.0,30.10,South,173,0.0,1.0,94,0.00,,,0.00,weatherlink.com 1.10,2013-04-02 12:00:00,
2013-04-02 05:15:00,30.3,29.0,30.10,SSE,165,0.0,1.0,96,0.00,,,0.00,weatherlink.com 1.10,2013-04-02 12:15:00,
2013-04-02 05:30:00,30.4,29.0,30.11,SSE,163,0.0,0.0,96,0.00,,,0.00,weatherlink.com 1.10,2013-04-02 12:30:00,
2013-04-02 05:45:00,30.5,30.0,30.11,SSE,158,0.0,0.0,96,0.00,,,0.00,weatherlink.com 1.10,2013-04-02 12:45:00,
2013-04-02 06:00:00,29.5,28.0,30.11,SSE,158,0.0,0.0,95,0.00,,,0.00,weatherlink.com 1.10,2013-04-02 13:00:00,
2013-04-02 06:15:00,29.5,28.0,30.11,SSE,158,0.0,0.0,95,0.00,,,0.00,weatherlink.com 1.10,2013-04-02 13:15:00,
2013-04-02 06:30:00,29.1,28.0,30.11,SSE,158,0.0,0.0,95,0.00,,,0.00,weatherlink.com 1.10,2013-04-02 13:30:00,
2013-04-02 06:45:00,29.2,28.0,30.11,SSE,158,0.0,0.0,96,0.00,,,0.00,weatherlink.com 1.10,2013-04-02 13:45:00,
2013-04-02 07:00:00,28.9,28.0,30.12,SSE,158,0.0,0.0,95,0.00,,,0.00,weatherlink.com 1.10,2013-04-02 14:00:00,
2013-04-02 07:15:00,28.8,28.0,30.12,SSE,158,0.0,0.0,95,0.00,,,0.00,weatherlink.com 1.10,2013-04-02 14:15:00,
2013-04-02 07:30:00,29.3,28.0,30.13,SSE,158,0.0,0.0,95,0.00,,,0.00,weatherlink.com 1.10,2013-04-02 14:30:00,
2013-04-02 07:45:00,30.1,29.0,30.12,SSE,158,0.0,0.0,96,0.00,,,0.00,weatherlink.com 1.10,2013-04-02 14:45:00,
2013-04-02 08:00:00,31.2,31.0,30.13,SSE,158,0.0,0.0,97,0.00,,,0.00,weatherlink.com 1.10,2013-04-02 15:00:00,
2013-04-02 08:15:00,35.6,34.0,30.13,SSE,158,0.0,0.0,93,0.00,,,0.00,weatherlink.com 1.10,2013-04-02 15:15:00,
2013-04-02 08:30:00,39.5,36.0,30.13,South,174,0.0,1.0,87,0.00,,,0.00,weatherlink.com 1.10,2013-04-02 15:30:00,
2013-04-02 08:46:00,42.0,38.0,30.13,SSE,150,0.0,3.0,87,0.00,,,0.00,weatherlink.com 1.10,2013-04-02 15:46:00,
2013-04-02 09:01:00,43.6,39.0,30.13,East,89,1.0,4.0,85,0.00,,,0.00,weatherlink.com 1.10,2013-04-02 16:01:00,
2013-04-02 10:01:00,47.8,40.0,30.13,NNE,32,3.0,5.0,75,0.00,,,0.00,weatherlink.com 1.10,2013-04-02 17:01:00,
2013-04-02 11:01:00,49.9,40.0,30.12,ESE,111,0.0,4.0,69,0.00,,,0.00,weatherlink.com 1.10,2013-04-02 18:01:00,
2013-04-02 11:16:00,50.0,40.0,30.12,NE,55,2.0,5.0,68,0.00,,,0.00,weatherlink.com 1.10,2013-04-02 18:16:00,
2013-04-02 12:01:00,50.9,40.0,30.11,North,8,5.0,5.0,66,0.00,,,0.00,weatherlink.com 1.10,2013-04-02 19:01:00,
2013-04-02 12:31:00,52.2,40.0,30.10,ESE,114,2.0,5.0,64,0.00,,,0.00,weatherlink.com 1.10,2013-04-02 19:31:00,
2013-04-02 12:46:00,53.0,41.0,30.10,East,97,2.0,6.0,63,0.00,,,0.00,weatherlink.com 1.10,2013-04-02 19:46:00,
2013-04-02 13:31:00,56.7,41.0,30.09,ESE,104,0.0,8.0,57,0.00,,,0.00,weatherlink.com 1.10,2013-04-02 20:31:00,
2013-04-02 13:47:00,58.3,41.0,30.08,North,9,4.0,6.0,53,0.00,,,0.00,weatherlink.com 1.10,2013-04-02 20:47:00,
2013-04-02 14:02:00,58.6,41.0,30.08,NE,34,1.0,6.0,52,0.00,,,0.00,weatherlink.com 1.10,2013-04-02 21:02:00,
2013-04-02 14:17:00,58.8,41.0,30.08,East,90,2.0,6.0,52,0.00,,,0.00,weatherlink.com 1.10,2013-04-02 21:17:00,
2013-04-02 14:32:00,59.8,40.0,30.08,ESE,113,4.0,8.0,48,0.00,,,0.00,weatherlink.com 1.10,2013-04-02 21:32:00,
2013-04-02 14:47:00,60.2,40.0,30.07,SSE,162,0.0,7.0,47,0.00,,,0.00,weatherlink.com 1.10,2013-04-02 21:47:00,
2013-04-02 15:02:00,60.4,40.0,30.07,ESE,123,0.0,6.0,47,0.00,,,0.00,weatherlink.com 1.10,2013-04-02 22:02:00,
2013-04-02 15:17:00,60.8,40.0,30.07,SSW,212,4.0,7.0,46,0.00,,,0.00,weatherlink.com 1.10,2013-04-02 22:17:00,
2013-04-02 15:32:00,60.8,39.0,30.07,ESE,103,2.0,8.0,44,0.00,,,0.00,weatherlink.com 1.10,2013-04-02 22:32:00,
2013-04-02 15:47:00,60.0,41.0,30.07,South,176,0.0,4.0,49,0.00,,,0.00,weatherlink.com 1.10,2013-04-02 22:47:00,
2013-04-02 16:02:00,60.5,40.0,30.07,SE,135,3.0,6.0,47,0.00,,,0.00,weatherlink.com 1.10,2013-04-02 23:02:00,
2013-04-02 16:17:00,60.2,40.0,30.07,NE,49,2.0,6.0,48,0.00,,,0.00,weatherlink.com 1.10,2013-04-02 23:17:00,
2013-04-02 16:47:00,58.2,40.0,30.07,WNW,300,1.0,9.0,52,0.00,,,0.00,weatherlink.com 1.10,2013-04-02 23:47:00,
2013-04-02 17:02:00,57.8,41.0,30.07,SE,145,1.0,4.0,53,0.00,,,0.00,weatherlink.com 1.10,2013-04-03 00:02:00,
2013-04-02 17:17:00,57.6,40.0,30.06,WSW,238,4.0,5.0,52,0.00,,,0.00,weatherlink.com 1.10,2013-04-03 00:17:00,
2013-04-02 17:32:00,57.5,41.0,30.07,SE,140,0.0,3.0,54,0.00,,,0.00,weatherlink.com 1.10,2013-04-03 00:32:00,
2013-04-02 17:47:00,56.5,40.0,30.06,ESE,108,1.0,4.0,55,0.00,,,0.00,weatherlink.com 1.10,2013-04-03 00:47:00,
2013-04-02 18:02:00,55.9,40.0,30.06,South,169,0.0,2.0,55,0.00,,,0.00,weatherlink.com 1.10,2013-04-03 01:02:00,
2013-04-02 18:17:00,55.2,40.0,30.07,ESE,117,2.0,4.0,56,0.00,,,0.00,weatherlink.com 1.10,2013-04-03 01:17:00,
2013-04-02 18:32:00,54.0,40.0,30.07,SE,142,0.0,4.0,59,0.00,,,0.00,weatherlink.com 1.10,2013-04-03 01:32:00,
2013-04-02 18:47:00,53.1,38.0,30.07,ESE,123,0.0,5.0,58,0.00,,,0.00,weatherlink.com 1.10,2013-04-03 01:47:00,
2013-04-02 19:32:00,50.4,39.0,30.07,ESE,118,0.0,1.0,66,0.00,,,0.00,weatherlink.com 1.10,2013-04-03 02:32:00,
2013-04-02 19:47:00,48.8,39.0,30.07,SE,134,0.0,1.0,68,0.00,,,0.00,weatherlink.com 1.10,2013-04-03 02:47:00,
2013-04-02 20:02:00,47.1,38.0,30.07,SE,134,0.0,0.0,72,0.00,,,0.00,weatherlink.com 1.10,2013-04-03 03:02:00,
2013-04-02 20:17:00,45.7,38.0,30.08,SE,134,0.0,0.0,75,0.00,,,0.00,weatherlink.com 1.10,2013-04-03 03:17:00,
2013-04-02 20:32:00,44.5,38.0,30.08,SSE,158,0.0,1.0,77,0.00,,,0.00,weatherlink.com 1.10,2013-04-03 03:32:00,
2013-04-02 21:02:00,42.7,37.0,30.09,SSE,158,0.0,0.0,79,0.00,,,0.00,weatherlink.com 1.10,2013-04-03 04:02:00,
2013-04-02 21:17:00,41.9,36.0,30.10,SSE,158,0.0,0.0,80,0.00,,,0.00,weatherlink.com 1.10,2013-04-03 04:17:00,
2013-04-02 21:32:00,41.1,36.0,30.10,SSE,158,0.0,0.0,83,0.00,,,0.00,weatherlink.com 1.10,2013-04-03 04:32:00,
2013-04-02 21:47:00,40.6,37.0,30.10,SSE,156,0.0,0.0,86,0.00,,,0.00,weatherlink.com 1.10,2013-04-03 04:47:00,
2013-04-02 22:02:00,40.3,37.0,30.10,SSE,156,0.0,0.0,86,0.00,,,0.00,weatherlink.com 1.10,2013-04-03 05:02:00,
2013-04-02 22:17:00,40.4,37.0,30.10,SSE,157,0.0,0.0,86,0.00,,,0.00,weatherlink.com 1.10,2013-04-03 05:17:00,
2013-04-02 22:32:00,40.6,37.0,30.10,SSE,157,0.0,0.0,85,0.00,,,0.00,weatherlink.com 1.10,2013-04-03 05:32:00,
2013-04-02 22:47:00,41.1,37.0,30.10,SE,128,0.0,2.0,85,0.00,,,0.00,weatherlink.com 1.10,2013-04-03 05:47:00,
2013-04-02 23:02:00,40.5,37.0,30.10,SE,128,0.0,0.0,86,0.00,,,0.00,weatherlink.com 1.10,2013-04-03 06:02:00,
2013-04-02 23:17:00,39.4,36.0,30.10,SSE,164,0.0,2.0,87,0.00,,,0.00,weatherlink.com 1.10,2013-04-03 06:17:00,
2013-04-02 23:32:00,38.5,35.0,30.09,SSE,148,0.0,1.0,88,0.00,,,0.00,weatherlink.com 1.10,2013-04-03 06:32:00,
2013-04-02 23:47:00,37.7,35.0,30.10,SSE,155,0.0,1.0,90,0.00,,,0.00,weatherlink.com 1.10,2013-04-03 06:47:00,